Time;durP1;ratioP1;P1;durP2;ratioP2;P2;SDS_P1;SDS_P2;PMS_P1;PMS_P2;Temp;Humidity;BMP_temperature;BMP_pressure;BME280_temperature;BME280_humidity;BME280_pressure;Samples;Min_cycle;Max_cycle;Signal;HPM_P1;HPM_P2
2021/11/02 00:00:05;;;;;;;56.10;46.70;;;;;22.00;98880.00;;;;2079092;28;20245;-53
2021/11/02 00:01:05;;;;;;;54.60;45.30;;;;;22.00;98879.00;;;;2079279;28;20305;-54
2021/11/02 00:02:06;;;;;;;53.70;47.60;;;;;22.00;98882.00;;;;2079689;28;20218;-54
2021/11/02 00:03:06;;;;;;;52.47;43.77;;;;;22.00;98888.00;;;;2079557;28;20256;-54
2021/11/02 00:04:06;;;;;;;48.87;43.43;;;;;22.00;98877.00;;;;2079383;28;20218;-55
2021/11/02 00:05:07;;;;;;;50.07;43.50;;;;;22.00;98879.00;;;;2079786;28;20701;-54
2021/11/02 00:06:08;;;;;;;48.60;41.93;;;;;22.00;98879.00;;;;2079404;28;20360;-53
2021/11/02 00:07:08;;;;;;;46.73;41.53;;;;;22.00;98879.00;;;;2079802;28;20686;-54
2021/11/02 00:08:08;;;;;;;51.20;41.63;;;;;22.00;98889.00;;;;2079565;28;21040;-54
2021/11/02 00:09:12;;;;;;;46.80;41.00;;;;;22.00;98875.00;;;;2078696;28;20577;-54
2021/11/02 00:10:13;;;;;;;46.10;40.70;;;;;22.00;98884.00;;;;2072688;28;20290;-53
2021/11/02 00:11:13;;;;;;;45.03;40.13;;;;;22.00;98884.00;;;;2071642;28;20962;-55
2021/11/02 00:12:14;;;;;;;45.13;40.00;;;;;22.00;98883.00;;;;2071696;28;20218;-53
2021/11/02 00:13:27;;;;;;;48.70;39.73;;;;;22.00;98883.00;;;;2071791;28;20297;-53
2021/11/02 00:14:29;;;;;;;45.95;41.05;;;;;22.00;98886.00;;;;2070745;28;20232;-54
2021/11/02 00:15:32;;;;;;;44.13;37.97;;;;;22.00;98881.00;;;;2071146;28;20214;-54
2021/11/02 00:16:33;;;;;;;43.60;38.80;;;;;22.00;98886.00;;;;2071759;28;20246;-54
2021/11/02 00:17:36;;;;;;;45.80;38.23;;;;;22.00;98881.00;;;;2070953;28;20237;-54
2021/11/02 00:18:41;;;;;;;41.70;36.45;;;;;22.00;98880.00;;;;2078596;28;20581;-53
2021/11/02 00:19:44;;;;;;;42.22;37.60;;;;;22.00;98876.00;;;;2079228;28;20205;-54
2021/11/02 00:20:45;;;;;;;39.80;33.92;;;;;22.00;98892.00;;;;2075060;28;20260;-54
2021/11/02 00:21:47;;;;;;;40.10;34.73;;;;;21.90;98883.00;;;;2078977;28;20512;-54
2021/11/02 00:22:57;;;;;;;39.40;35.10;;;;;22.00;98886.00;;;;2078940;28;20213;-53
2021/11/02 00:24:09;;;;;;;37.85;33.75;;;;;22.00;98887.00;;;;2072093;28;20225;-53
2021/11/02 00:25:11;;;;;;;38.13;34.03;;;;;22.00;98890.00;;;;2076652;28;20209;-54
2021/11/02 00:26:12;;;;;;;40.50;34.15;;;;;22.00;98896.00;;;;2079721;28;20689;-54
2021/11/02 00:27:12;;;;;;;38.17;34.00;;;;;22.00;98892.00;;;;2079661;28;20218;-53
2021/11/02 00:28:13;;;;;;;37.17;33.17;;;;;22.00;98887.00;;;;2079640;28;20214;-53
2021/11/02 00:29:13;;;;;;;36.47;32.43;;;;;22.00;98894.00;;;;2078642;28;20217;-54
2021/11/02 00:30:14;;;;;;;35.80;31.60;;;;;22.00;98888.00;;;;2079954;28;20233;-55
2021/11/02 00:31:14;;;;;;;36.53;32.00;;;;;22.00;98894.00;;;;2079537;28;20241;-54
2021/11/02 00:32:15;;;;;;;35.87;31.87;;;;;22.00;98887.00;;;;2078886;28;21027;-54
2021/11/02 00:33:16;;;;;;;36.87;32.17;;;;;22.00;98888.00;;;;2071726;28;20649;-55
2021/11/02 00:34:16;;;;;;;35.60;30.50;;;;;22.00;98892.00;;;;2071704;28;20959;-55
2021/11/02 00:35:17;;;;;;;35.87;31.67;;;;;22.00;98890.00;;;;2071347;28;20215;-55
2021/11/02 00:36:17;;;;;;;33.95;29.95;;;;;22.00;98894.00;;;;2071529;28;20226;-54
2021/11/02 00:37:18;;;;;;;35.13;30.63;;;;;22.00;98893.00;;;;2071601;28;20210;-54
2021/11/02 00:38:18;;;;;;;32.67;29.10;;;;;22.00;98897.00;;;;2078994;28;20217;-55
2021/11/02 00:39:18;;;;;;;32.83;29.27;;;;;22.00;98893.00;;;;2078711;28;20210;-53
2021/11/02 00:40:22;;;;;;;33.77;29.33;;;;;21.90;98894.00;;;;2079571;28;20214;-53
2021/11/02 00:41:22;;;;;;;33.75;29.20;;;;;21.90;98894.00;;;;2079742;28;20257;-54
2021/11/02 00:42:40;;;;;;;30.87;27.20;;;;;22.00;98897.00;;;;2079573;28;20581;-53
2021/11/02 00:43:40;;;;;;;29.90;26.70;;;;;21.90;98884.00;;;;2079460;28;20209;-55
2021/11/02 00:44:44;;;;;;;32.63;28.10;;;;;21.90;98893.00;;;;2079633;28;20201;-54
2021/11/02 00:45:45;;;;;;;28.58;25.38;;;;;21.90;98892.00;;;;2079484;28;20821;-54
2021/11/02 00:46:45;;;;;;;32.10;27.77;;;;;21.90;98889.00;;;;2079513;28;20225;-55
2021/11/02 00:47:49;;;;;;;30.47;26.60;;;;;21.90;98904.00;;;;2079681;28;20293;-54
2021/11/02 00:48:49;;;;;;;29.55;25.73;;;;;21.90;98890.00;;;;2070990;28;20206;-54
2021/11/02 00:49:50;;;;;;;28.57;25.47;;;;;21.90;98890.00;;;;2071547;28;20233;-53
2021/11/02 00:50:51;;;;;;;28.40;25.40;;;;;21.90;98892.00;;;;2070529;28;20206;-55
2021/11/02 00:51:51;;;;;;;28.37;24.13;;;;;21.90;98898.00;;;;2078367;28;20246;-54
2021/11/02 00:52:52;;;;;;;28.90;25.83;;;;;21.90;98895.00;;;;2073816;28;20217;-53
2021/11/02 00:53:53;;;;;;;27.83;24.87;;;;;21.90;98893.00;;;;2073815;28;20867;-55
2021/11/02 00:54:53;;;;;;;31.00;24.73;;;;;21.90;98892.00;;;;2074394;28;20209;-53
2021/11/02 00:55:53;;;;;;;26.90;24.00;;;;;21.90;98897.00;;;;2079738;28;20544;-52
2021/11/02 00:56:54;;;;;;;27.70;24.80;;;;;21.90;98892.00;;;;2079351;28;20218;-54
2021/11/02 00:57:54;;;;;;;25.30;22.60;;;;;21.90;98903.00;;;;2079319;28;20632;-53
2021/11/02 00:58:54;;;;;;;27.43;22.90;;;;;21.90;98886.00;;;;2078470;28;20607;-55
2021/11/02 00:59:55;;;;;;;26.73;23.93;;;;;21.90;98884.00;;;;2079373;28;20693;-54
2021/11/02 01:00:55;;;;;;;25.83;23.03;;;;;21.90;98892.00;;;;2079487;28;20297;-54
2021/11/02 01:01:55;;;;;;;26.00;22.17;;;;;21.90;98889.00;;;;2077486;28;20217;-54
2021/11/02 01:02:56;;;;;;;26.70;22.33;;;;;21.90;98885.00;;;;2071476;28;20214;-54
2021/11/02 01:03:56;;;;;;;24.67;21.17;;;;;21.90;98885.00;;;;2074482;28;20262;-54
2021/11/02 01:04:57;;;;;;;23.63;21.00;;;;;21.90;98887.00;;;;2071904;28;20217;-55
2021/11/02 01:05:57;;;;;;;21.77;19.53;;;;;21.90;98890.00;;;;2070819;28;20233;-54
2021/11/02 01:06:57;;;;;;;23.67;21.23;;;;;21.90;98893.00;;;;2070726;28;20293;-53
2021/11/02 01:07:58;;;;;;;22.73;20.20;;;;;21.90;98891.00;;;;2070838;28;20218;-54
2021/11/02 01:08:58;;;;;;;22.30;20.00;;;;;21.90;98890.00;;;;2070900;28;20264;-54
2021/11/02 01:10:00;;;;;;;22.27;19.93;;;;;21.90;98889.00;;;;2078802;28;20210;-54
2021/11/02 01:11:01;;;;;;;23.60;21.10;;;;;21.90;98887.00;;;;2076891;28;20447;-55
2021/11/02 01:12:01;;;;;;;20.77;18.60;;;;;21.90;98892.00;;;;2070377;28;20221;-54
2021/11/02 01:13:02;;;;;;;20.83;18.23;;;;;21.90;98894.00;;;;2073579;28;20218;-55
2021/11/02 01:14:04;;;;;;;20.00;18.00;;;;;21.90;98897.00;;;;2070865;28;20226;-54
2021/11/02 01:15:05;;;;;;;21.70;19.27;;;;;21.90;98902.00;;;;2070797;28;20214;-54
2021/11/02 01:16:05;;;;;;;19.97;17.90;;;;;21.90;98895.00;;;;2074351;28;20233;-56
2021/11/02 01:17:05;;;;;;;20.97;18.47;;;;;21.90;98899.00;;;;2073179;28;20464;-55
2021/11/02 01:18:06;;;;;;;19.23;17.30;;;;;21.90;98909.00;;;;2073412;28;20225;-54
2021/11/02 01:19:06;;;;;;;19.90;17.40;;;;;21.90;98898.00;;;;2071941;28;20217;-53
2021/11/02 01:20:07;;;;;;;20.40;17.73;;;;;21.90;98893.00;;;;2078465;28;20213;-53
2021/11/02 01:21:08;;;;;;;19.27;17.27;;;;;21.90;98894.00;;;;2078726;28;20251;-53
2021/11/02 01:22:08;;;;;;;19.37;17.43;;;;;21.90;98908.00;;;;2078798;28;20678;-55
2021/11/02 01:23:08;;;;;;;18.60;16.60;;;;;21.90;98900.00;;;;2078817;28;20927;-53
2021/11/02 01:24:09;;;;;;;19.40;17.30;;;;;21.90;98899.00;;;;2078957;28;20209;-54
2021/11/02 01:25:09;;;;;;;19.93;17.00;;;;;21.90;98894.00;;;;2079161;28;20213;-54
2021/11/02 01:26:10;;;;;;;18.67;16.67;;;;;21.90;98898.00;;;;2078821;28;20222;-54
2021/11/02 01:27:10;;;;;;;18.17;16.27;;;;;21.90;98895.00;;;;2072779;28;20214;-53
2021/11/02 01:28:10;;;;;;;20.67;18.47;;;;;21.90;98892.00;;;;2069768;28;20210;-53
2021/11/02 01:29:11;;;;;;;17.67;15.77;;;;;21.90;98883.00;;;;2068432;28;20222;-53
2021/11/02 01:30:11;;;;;;;18.10;15.97;;;;;21.90;98887.00;;;;2074146;28;20240;-53
2021/11/02 01:31:12;;;;;;;17.97;15.93;;;;;21.90;98878.00;;;;2078678;28;20220;-55
2021/11/02 01:32:12;;;;;;;19.40;16.07;;;;;21.90;98886.00;;;;2079385;28;20256;-54
2021/11/02 01:33:12;;;;;;;16.30;14.60;;;;;21.80;98876.00;;;;2079009;28;20756;-53
2021/11/02 01:34:13;;;;;;;16.33;14.63;;;;;21.80;98881.00;;;;2074556;28;20679;-55
2021/11/02 01:35:13;;;;;;;17.80;16.00;;;;;21.80;98886.00;;;;2072029;28;20237;-54
2021/11/02 01:36:13;;;;;;;16.30;14.60;;;;;21.80;98882.00;;;;2074656;28;20214;-54
2021/11/02 01:37:14;;;;;;;16.80;14.20;;;;;21.90;98888.00;;;;2072557;28;20226;-55
2021/11/02 01:38:16;;;;;;;15.50;13.90;;;;;21.80;98888.00;;;;2071211;28;20211;-54
2021/11/02 01:39:16;;;;;;;16.60;14.55;;;;;21.80;98888.00;;;;2059433;28;20214;-55
2021/11/02 01:40:17;;;;;;;15.03;13.40;;;;;21.80;98886.00;;;;2070317;28;20217;-53
2021/11/02 01:41:22;;;;;;;17.75;14.73;;;;;21.80;98881.00;;;;2070730;28;20360;-54
2021/11/02 01:42:25;;;;;;;15.60;13.35;;;;;21.80;98886.00;;;;2071275;28;20268;-54
2021/11/02 01:43:25;;;;;;;15.60;13.60;;;;;21.80;98885.00;;;;2071137;28;20218;-53
2021/11/02 01:44:25;;;;;;;15.83;13.47;;;;;21.80;98883.00;;;;2071502;28;20214;-53
2021/11/02 01:45:28;;;;;;;14.40;12.90;;;;;21.80;98883.00;;;;2078736;28;20209;-55
2021/11/02 01:46:31;;;;;;;14.35;12.85;;;;;21.80;98878.00;;;;2074143;28;20585;-53
2021/11/02 01:47:35;;;;;;;14.88;13.13;;;;;21.80;98873.00;;;;2075086;28;20683;-52
2021/11/02 01:48:36;;;;;;;15.43;13.40;;;;;21.80;98880.00;;;;2076902;28;20213;-55
2021/11/02 01:49:36;;;;;;;15.63;13.30;;;;;21.80;98877.00;;;;2069141;28;20677;-55
2021/11/02 01:50:36;;;;;;;14.50;12.27;;;;;21.80;98875.00;;;;2065191;28;20225;-54
2021/11/02 01:51:37;;;;;;;15.20;13.10;;;;;21.80;98874.00;;;;2078383;28;20218;-54
2021/11/02 01:52:38;;;;;;;14.47;12.93;;;;;21.80;98868.00;;;;2078512;28;20214;-54
2021/11/02 01:53:38;;;;;;;13.10;11.73;;;;;21.80;98878.00;;;;2071047;28;20236;-53
2021/11/02 01:54:39;;;;;;;13.90;11.93;;;;;21.80;98877.00;;;;2077965;28;20697;-53
2021/11/02 01:55:39;;;;;;;15.87;12.90;;;;;21.80;98878.00;;;;2078554;28;20264;-54
2021/11/02 01:56:42;;;;;;;13.37;11.97;;;;;21.80;98875.00;;;;2077885;28;20229;-53
2021/11/02 01:57:43;;;;;;;12.15;10.77;;;;;21.80;98877.00;;;;2079013;28;20239;-53
2021/11/02 01:58:46;;;;;;;13.57;11.25;;;;;21.80;98873.00;;;;2078446;28;20217;-53
2021/11/02 01:59:46;;;;;;;13.07;11.75;;;;;21.80;98879.00;;;;2070488;28;20218;-55
2021/11/02 02:00:50;;;;;;;12.43;11.13;;;;;21.80;98878.00;;;;2070303;28;20300;-55
2021/11/02 02:02:06;;;;;;;13.70;11.55;;;;;21.80;98873.00;;;;2062352;28;20225;-54
2021/11/02 02:03:34;;;;;;;11.95;10.48;;;;;21.80;98877.00;;;;2070562;28;20206;-54
2021/11/02 02:04:53;;;;;;;12.25;10.98;;;;;21.80;98871.00;;;;2070914;28;20198;-55
2021/11/02 02:06:11;;;;;;;11.57;10.38;;;;;21.80;98874.00;;;;2078300;28;20244;-53
2021/11/02 02:07:25;;;;;;;11.80;10.60;;;;;21.80;98876.00;;;;2079203;28;20705;-53
2021/11/02 02:08:34;;;;;;;11.48;9.50;;;;;21.80;98872.00;;;;2078357;28;20774;-53
2021/11/02 02:09:58;;;;;;;11.50;10.32;;;;;21.80;98870.00;;;;2063750;28;20211;-55
2021/11/02 02:11:17;;;;;;;12.02;10.27;;;;;21.80;98870.00;;;;2070457;28;20226;-53
2021/11/02 02:12:20;;;;;;;11.80;9.95;;;;;21.80;98886.00;;;;2075521;28;20339;-53
2021/11/02 02:13:20;;;;;;;10.98;9.88;;;;;21.80;98874.00;;;;2078093;28;20217;-54
2021/11/02 02:14:27;;;;;;;12.10;9.93;;;;;21.80;98876.00;;;;2078225;28;20309;-54
2021/11/02 02:15:41;;;;;;;11.63;9.82;;;;;21.80;98876.00;;;;2077976;28;20213;-55
2021/11/02 02:16:49;;;;;;;13.05;10.43;;;;;21.80;98888.00;;;;2073817;28;20574;-54
2021/11/02 02:18:10;;;;;;;10.38;9.18;;;;;21.70;98884.00;;;;2064555;28;20222;-55
2021/11/02 02:19:35;;;;;;;10.73;9.52;;;;;21.70;98879.00;;;;2066437;28;20217;-54
2021/11/02 02:20:46;;;;;;;11.15;9.35;;;;;21.80;98895.00;;;;2082244;28;20209;-53
2021/11/02 02:22:01;;;;;;;10.07;8.85;;;;;21.80;98877.00;;;;2078391;28;20232;-53
2021/11/02 02:23:13;;;;;;;10.57;9.32;;;;;21.80;98883.00;;;;2078242;28;20259;-52
2021/11/02 02:24:21;;;;;;;10.23;8.38;;;;;21.80;98877.00;;;;2078179;28;20282;-55
2021/11/02 02:25:31;;;;;;;9.73;7.95;;;;;21.70;98875.00;;;;2069930;28;20210;-57
2021/11/02 02:26:34;;;;;;;11.70;8.98;;;;;21.70;98856.00;;;;2071356;28;20222;-55
2021/11/02 02:28:00;;;;;;;10.52;8.85;;;;;21.70;98878.00;;;;2078329;28;20691;-53
2021/11/02 02:29:03;;;;;;;10.38;8.85;;;;;21.70;98873.00;;;;2066272;28;20217;-54
2021/11/02 02:30:08;;;;;;;9.23;7.50;;;;;21.70;98871.00;;;;2069945;28;20221;-54
2021/11/02 02:31:11;;;;;;;9.43;8.35;;;;;21.70;98874.00;;;;2063316;28;20202;-54
2021/11/02 02:32:16;;;;;;;8.40;7.55;;;;;21.70;98875.00;;;;2070262;28;20660;-53
2021/11/02 02:33:17;;;;;;;9.13;7.88;;;;;21.70;98880.00;;;;2074477;28;20229;-54
2021/11/02 02:34:17;;;;;;;8.97;8.07;;;;;21.70;98886.00;;;;2078431;28;20213;-55
2021/11/02 02:35:22;;;;;;;8.80;7.90;;;;;21.70;98878.00;;;;2070133;28;20314;-54
2021/11/02 02:36:22;;;;;;;8.05;7.25;;;;;21.70;98873.00;;;;2078167;28;20216;-53
2021/11/02 02:37:24;;;;;;;9.20;8.13;;;;;21.70;98894.00;;;;2070565;28;20233;-53
2021/11/02 02:38:24;;;;;;;8.90;8.00;;;;;21.70;98876.00;;;;2069533;28;20686;-53
2021/11/02 02:39:25;;;;;;;7.93;7.17;;;;;21.70;98875.00;;;;2068568;28;20221;-54
2021/11/02 02:40:25;;;;;;;9.20;7.50;;;;;21.70;98870.00;;;;2064480;28;20218;-54
2021/11/02 02:41:26;;;;;;;8.03;7.10;;;;;21.70;98871.00;;;;2053934;28;20668;-54
2021/11/02 02:42:27;;;;;;;9.77;7.57;;;;;21.60;98867.00;;;;2060470;28;20588;-54
2021/11/02 02:43:28;;;;;;;8.98;7.05;;;;;21.70;98871.00;;;;2067033;28;20222;-53
2021/11/02 02:44:30;;;;;;;7.77;6.97;;;;;21.70;98877.00;;;;2069785;28;20222;-55
2021/11/02 02:45:30;;;;;;;7.60;6.90;;;;;21.70;98861.00;;;;2073315;28;20259;-53
2021/11/02 02:46:30;;;;;;;7.20;6.50;;;;;21.70;98875.00;;;;2058559;28;20278;-55
2021/11/02 02:47:31;;;;;;;8.33;7.50;;;;;21.70;98870.00;;;;2067319;28;20440;-52
2021/11/02 02:48:32;;;;;;;7.57;6.77;;;;;21.70;98872.00;;;;2070018;28;20222;-55
2021/11/02 02:49:33;;;;;;;7.23;6.50;;;;;21.70;98878.00;;;;2068956;28;20453;-55
2021/11/02 02:50:33;;;;;;;8.27;6.80;;;;;21.70;98879.00;;;;2070065;28;20210;-54
2021/11/02 02:51:34;;;;;;;8.47;7.20;;;;;21.70;98877.00;;;;2061897;28;20446;-53
2021/11/02 02:52:35;;;;;;;8.60;6.60;;;;;21.70;98878.00;;;;2073084;28;20218;-53
2021/11/02 02:53:35;;;;;;;7.53;6.73;;;;;21.70;98883.00;;;;2081912;28;21020;-55
2021/11/02 02:54:36;;;;;;;7.40;6.57;;;;;21.70;98871.00;;;;2069912;28;20218;-54
2021/11/02 02:55:36;;;;;;;7.10;6.00;;;;;21.70;98877.00;;;;2062059;28;20215;-53
2021/11/02 02:56:36;;;;;;;6.83;6.13;;;;;21.70;98876.00;;;;2069783;28;20617;-54
2021/11/02 02:57:37;;;;;;;7.23;6.50;;;;;21.70;98881.00;;;;2078163;28;20237;-54
2021/11/02 02:58:40;;;;;;;6.83;6.13;;;;;21.70;98881.00;;;;2070192;28;20323;-54
2021/11/02 02:59:41;;;;;;;9.45;5.70;;;;;21.70;98876.00;;;;2053096;28;20696;-54
2021/11/02 03:00:42;;;;;;;7.20;5.97;;;;;21.70;98884.00;;;;2054117;28;20215;-53
2021/11/02 03:01:42;;;;;;;7.07;6.05;;;;;21.70;98870.00;;;;2073029;28;20210;-53
2021/11/02 03:02:43;;;;;;;7.10;5.47;;;;;21.70;98881.00;;;;2069643;28;20210;-54
2021/11/02 03:03:56;;;;;;;6.78;5.95;;;;;21.70;98874.00;;;;2071579;28;20293;-52
2021/11/02 03:04:57;;;;;;;6.53;5.32;;;;;21.70;98877.00;;;;2078248;28;20279;-55
2021/11/02 03:06:00;;;;;;;6.17;5.50;;;;;21.70;98873.00;;;;2073467;28;20218;-56
2021/11/02 03:07:01;;;;;;;7.32;6.03;;;;;21.70;98875.00;;;;2071759;28;20228;-54
2021/11/02 03:08:03;;;;;;;6.33;5.67;;;;;21.60;98868.00;;;;2077598;28;20705;-54
2021/11/02 03:09:09;;;;;;;6.72;5.75;;;;;21.70;98876.00;;;;2076925;28;20219;-54
2021/11/02 03:10:10;;;;;;;6.63;5.05;;;;;21.70;98872.00;;;;2078165;28;20551;-53
2021/11/02 03:11:10;;;;;;;7.30;5.60;;;;;21.70;98868.00;;;;2074056;28;20237;-53
2021/11/02 03:12:11;;;;;;;6.43;5.57;;;;;21.60;98874.00;;;;2069703;28;20222;-55
2021/11/02 03:13:13;;;;;;;6.07;5.30;;;;;21.70;98869.00;;;;2069792;28;20283;-54
2021/11/02 03:14:20;;;;;;;6.25;5.65;;;;;21.70;98867.00;;;;2074675;28;20918;-53
2021/11/02 03:15:49;;;;;;;6.50;5.60;;;;;21.70;98878.00;;;;2066068;28;20302;-54
2021/11/02 03:17:03;;;;;;;5.85;5.25;;;;;21.70;98870.00;;;;2069154;28;20229;-55
2021/11/02 03:55:22;;;;;;;3.80;3.15;;;;;21.60;98865.00;;;;2068498;28;20254;-53
2021/11/02 03:59:08;;;;;;;7.90;3.80;;;;;21.60;98871.00;;;;2072313;28;20240;-53
2021/11/02 04:24:47;;;;;;;6.18;2.65;;;;;21.60;98876.00;;;;2075876;28;20209;-53
2021/11/02 04:27:17;;;;;;;4.00;2.45;;;;;21.60;98872.00;;;;2073689;28;20213;-53
2021/11/02 04:30:56;;;;;;;3.78;2.33;;;;;21.50;98865.00;;;;2071115;28;20214;-53
2021/11/02 04:47:45;;;;;;;2.40;1.90;;;;;21.60;98876.00;;;;2065591;28;20230;-55
2021/11/02 05:07:19;;;;;;;30.92;24.83;;;;;21.50;98853.00;;;;2073323;28;20221;-51
2021/11/02 05:11:17;;;;;;;40.23;30.77;;;;;21.50;98849.00;;;;2068580;28;20214;-52
2021/11/02 05:19:42;;;;;;;51.50;37.70;;;;;21.50;98850.00;;;;2072021;28;20222;-54
2021/11/02 05:46:47;;;;;;;63.03;44.30;;;;;21.50;98859.00;;;;2075888;28;20237;-53
2021/11/02 05:49:24;;;;;;;55.60;44.30;;;;;21.40;98843.00;;;;2070640;28;20633;-53
2021/11/02 05:54:04;;;;;;;60.88;45.67;;;;;21.40;98850.00;;;;2070769;28;20214;-54
2021/11/02 06:00:27;;;;;;;60.00;46.60;;;;;21.40;98849.00;;;;2077805;28;20228;-54
2021/11/02 06:05:41;;;;;;;65.55;48.65;;;;;21.50;98859.00;;;;2076785;28;20213;-55
2021/11/02 06:08:54;;;;;;;67.28;49.65;;;;;21.50;98863.00;;;;2065271;28;20302;-53
2021/11/02 06:09:44;;;;;;;62.50;49.10;;;;;21.50;98850.00;;;;2071881;28;20745;-52
2021/11/02 06:28:41;;;;;;;93.15;66.05;;;;;21.70;98839.00;;;;2068607;28;20217;-53
2021/11/02 06:29:41;;;;;;;81.73;63.37;;;;;21.70;98847.00;;;;2071101;28;20606;-54
2021/11/02 06:30:59;;;;;;;86.80;66.33;;;;;21.70;98844.00;;;;2068113;28;20221;-52
2021/11/02 06:32:06;;;;;;;87.15;66.32;;;;;21.70;98851.00;;;;2062400;28;20215;-54
2021/11/02 06:33:13;;;;;;;86.35;65.20;;;;;21.70;98853.00;;;;2069789;28;20218;-54
2021/11/02 06:34:20;;;;;;;91.60;66.45;;;;;21.70;98854.00;;;;2069736;28;20705;-54
2021/11/02 06:35:28;;;;;;;90.28;65.07;;;;;21.70;98847.00;;;;2066849;28;20239;-53
2021/11/02 06:41:58;;;;;;;87.63;66.50;;;;;21.80;98854.00;;;;2068353;28;20289;-51
2021/11/02 06:44:16;;;;;;;90.50;69.43;;;;;21.80;98855.00;;;;2070663;28;20214;-52
2021/11/02 06:46:52;;;;;;;89.68;72.32;;;;;21.80;98862.00;;;;2069934;28;20228;-54
2021/11/02 07:19:09;;;;;;;168.27;127.38;;;;;22.00;98874.00;;;;2071471;28;20214;-54
2021/11/02 07:20:45;;;;;;;177.30;140.13;;;;;22.00;98877.00;;;;2073199;28;20302;-54
2021/11/02 07:21:46;;;;;;;193.68;148.60;;;;;22.00;98875.00;;;;2070779;28;20209;-53
2021/11/02 07:23:13;;;;;;;198.52;154.40;;;;;22.00;98871.00;;;;2075052;28;20310;-53
2021/11/02 08:47:04;;;;;;;130.20;111.60;;;;;22.10;98905.00;;;;2076326;28;20217;-55
2021/11/02 08:48:05;;;;;;;130.57;108.28;;;;;22.10;98898.00;;;;2072171;28;20682;-54
2021/11/02 08:49:05;;;;;;;130.00;108.03;;;;;22.10;98895.00;;;;2073790;28;20395;-54
2021/11/02 08:50:09;;;;;;;131.37;108.70;;;;;22.10;98896.00;;;;2074195;28;20226;-53
2021/11/02 08:51:09;;;;;;;136.18;107.80;;;;;22.10;98901.00;;;;2078814;28;20213;-54
2021/11/02 08:52:10;;;;;;;125.33;104.50;;;;;22.10;98899.00;;;;2078369;28;20248;-54
2021/11/02 08:53:11;;;;;;;130.47;108.97;;;;;22.10;98894.00;;;;2073397;28;20229;-55
2021/11/02 08:54:12;;;;;;;120.63;102.20;;;;;22.10;98901.00;;;;2074913;28;20648;-53
2021/11/02 08:55:12;;;;;;;123.50;107.20;;;;;22.10;98837.00;;;;2078137;28;20222;-54
2021/11/02 08:56:17;;;;;;;124.63;106.50;;;;;22.10;98888.00;;;;2079144;28;20957;-53
2021/11/02 08:57:18;;;;;;;119.13;104.43;;;;;22.10;98891.00;;;;2077903;28;20299;-58
2021/11/02 08:58:18;;;;;;;118.30;98.82;;;;;22.10;98903.00;;;;2075145;28;20218;-55
2021/11/02 08:59:19;;;;;;;122.03;100.43;;;;;22.10;98899.00;;;;2076846;28;20714;-53
2021/11/02 09:00:19;;;;;;;115.63;98.37;;;;;22.10;98896.00;;;;2073216;28;20233;-53
2021/11/02 09:01:21;;;;;;;114.47;96.33;;;;;22.10;98892.00;;;;2077800;28;20643;-55
2021/11/02 09:02:25;;;;;;;103.82;91.05;;;;;22.00;98897.00;;;;2070379;28;20206;-55
2021/11/02 09:03:29;;;;;;;110.85;94.97;;;;;22.10;98898.00;;;;2062575;28;20773;-53
2021/11/02 09:04:31;;;;;;;113.47;94.68;;;;;22.00;98890.00;;;;2073805;28;20942;-54
2021/11/02 09:05:34;;;;;;;111.57;94.25;;;;;22.10;98894.00;;;;2076985;28;21204;-54
2021/11/02 09:06:34;;;;;;;98.80;84.60;;;;;22.10;98897.00;;;;2079148;28;20230;-55
2021/11/02 09:07:38;;;;;;;103.30;88.17;;;;;22.10;98894.00;;;;2078975;28;20453;-54
2021/11/02 09:08:41;;;;;;;97.90;85.32;;;;;22.10;98896.00;;;;2074487;28;20573;-54
2021/11/02 09:09:42;;;;;;;100.95;85.93;;;;;22.10;98899.00;;;;2069707;28;20586;-54
2021/11/02 09:10:42;;;;;;;96.77;84.50;;;;;22.10;98893.00;;;;2067614;28;20225;-54
2021/11/02 09:11:42;;;;;;;103.50;89.37;;;;;22.10;98892.00;;;;2066520;28;20225;-55
2021/11/02 09:12:49;;;;;;;103.57;86.57;;;;;22.10;98904.00;;;;2070082;28;20214;-53
2021/11/02 09:13:56;;;;;;;100.05;83.82;;;;;22.10;98903.00;;;;2073938;28;20300;-57
2021/11/02 09:15:00;;;;;;;100.40;85.95;;;;;22.10;98893.00;;;;2073412;28;20210;-55
2021/11/02 09:16:02;;;;;;;98.80;83.95;;;;;22.10;98903.00;;;;2068217;28;20206;-56
2021/11/02 09:17:04;;;;;;;104.13;89.72;;;;;22.10;98858.00;;;;2071535;28;20323;-53
2021/11/02 09:18:06;;;;;;;107.28;91.10;;;;;21.90;98894.00;;;;2070024;28;20293;-55
2021/11/02 09:19:06;;;;;;;99.22;86.00;;;;;22.10;98903.00;;;;2077426;28;20214;-54
2021/11/02 09:20:07;;;;;;;102.73;87.90;;;;;22.10;98902.00;;;;2074223;28;20302;-55
2021/11/02 09:21:07;;;;;;;119.67;97.90;;;;;22.10;98900.00;;;;2078073;28;20213;-53
2021/11/02 09:22:10;;;;;;;134.70;108.47;;;;;22.10;98901.00;;;;2072812;28;20461;-55
2021/11/02 09:23:11;;;;;;;135.57;110.80;;;;;22.10;98895.00;;;;2075871;28;20229;-55
2021/11/02 09:24:11;;;;;;;117.03;96.43;;;;;22.10;98897.00;;;;2071090;28;20222;-54
2021/11/02 09:25:12;;;;;;;120.80;100.37;;;;;22.10;98895.00;;;;2070540;28;20268;-53
2021/11/02 09:26:15;;;;;;;112.87;96.03;;;;;22.10;98894.00;;;;2077993;28;20255;-54
2021/11/02 09:27:16;;;;;;;120.90;98.72;;;;;22.10;98892.00;;;;2075045;28;20861;-54
2021/11/02 09:28:16;;;;;;;132.53;107.20;;;;;22.10;98897.00;;;;2077150;28;20308;-53
2021/11/02 09:29:18;;;;;;;122.23;99.93;;;;;22.10;98895.00;;;;2068903;28;20221;-54
2021/11/02 09:30:20;;;;;;;112.97;92.25;;;;;22.10;98895.00;;;;2075504;28;20214;-55
2021/11/02 09:31:21;;;;;;;139.18;110.20;;;;;22.10;98891.00;;;;2070408;28;20253;-54
2021/11/02 09:32:21;;;;;;;147.85;113.40;;;;;22.10;98890.00;;;;2070558;28;20225;-53
2021/11/02 09:33:22;;;;;;;116.67;96.73;;;;;22.10;98900.00;;;;2070162;28;20221;-54
2021/11/02 09:34:23;;;;;;;141.83;118.97;;;;;22.00;98896.00;;;;2070004;28;20210;-60
2021/11/02 09:35:25;;;;;;;114.40;96.17;;;;;22.00;98896.00;;;;2073768;28;20226;-56
2021/11/02 09:36:50;;;;;;;135.55;110.38;;;;;22.00;98899.00;;;;2074199;28;20461;-54
2021/11/02 09:38:23;;;;;;;138.52;111.20;;;;;22.00;98890.00;;;;2074156;28;20217;-55
2021/11/02 09:39:23;;;;;;;140.63;114.40;;;;;22.00;98896.00;;;;2074702;28;20741;-58
2021/11/02 09:40:29;;;;;;;136.13;105.77;;;;;22.00;98900.00;;;;2077675;28;20213;-57
2021/11/02 09:41:54;;;;;;;149.30;121.55;;;;;22.00;98896.00;;;;2074297;28;20214;-53
2021/11/02 09:43:18;;;;;;;130.93;109.60;;;;;22.00;98900.00;;;;2070649;28;20206;-55
2021/11/02 09:44:34;;;;;;;151.98;119.78;;;;;22.00;98899.00;;;;2070285;28;20224;-55
2021/11/02 09:45:56;;;;;;;132.23;109.63;;;;;22.00;98897.00;;;;2067970;28;20267;-55
2021/11/02 09:47:08;;;;;;;170.00;129.73;;;;;21.90;98907.00;;;;2073146;28;20953;-53
2021/11/02 09:48:21;;;;;;;135.40;108.13;;;;;22.00;98899.00;;;;2069487;28;20222;-55
2021/11/02 09:49:42;;;;;;;121.97;101.43;;;;;22.00;98903.00;;;;2069425;28;20218;-56
2021/11/02 09:51:04;;;;;;;162.63;124.57;;;;;22.00;98896.00;;;;2075018;28;20750;-55
2021/11/02 09:52:07;;;;;;;144.95;115.22;;;;;22.00;98899.00;;;;2084393;28;20248;-55
2021/11/02 09:53:54;;;;;;;168.57;137.93;;;;;22.00;98903.00;;;;2081306;28;20303;-56
2021/11/02 09:55:21;;;;;;;187.77;145.45;;;;;22.00;98904.00;;;;2069842;28;20217;-54
2021/11/02 09:56:37;;;;;;;213.65;159.55;;;;;22.00;98901.00;;;;2077774;28;20210;-56
2021/11/02 09:58:09;;;;;;;232.60;173.70;;;;;22.00;98904.00;;;;2074905;28;20214;-55
2021/11/02 09:59:36;;;;;;;221.75;164.60;;;;;22.00;98904.00;;;;2068737;28;20286;-56
2021/11/02 10:00:55;;;;;;;209.10;157.05;;;;;22.00;98906.00;;;;2076505;28;20221;-56
2021/11/02 10:02:24;;;;;;;224.90;168.18;;;;;22.00;98907.00;;;;2073760;28;20279;-52
2021/11/02 10:03:46;;;;;;;206.73;154.23;;;;;21.90;98906.00;;;;2073600;28;20308;-54
2021/11/02 10:05:14;;;;;;;247.82;184.45;;;;;21.90;98908.00;;;;2068913;28;20226;-55
2021/11/02 10:07:06;;;;;;;246.02;177.02;;;;;21.90;98906.00;;;;2068069;28;20221;-56
2021/11/02 10:08:27;;;;;;;232.77;174.75;;;;;22.00;98904.00;;;;2068429;28;20275;-55
2021/11/02 10:09:38;;;;;;;216.20;161.18;;;;;21.90;98912.00;;;;2069550;28;20717;-55
2021/11/02 10:10:39;;;;;;;232.35;169.15;;;;;21.90;98911.00;;;;2069261;28;20223;-56
2021/11/02 10:12:08;;;;;;;246.40;185.13;;;;;21.90;98906.00;;;;2069775;28;20214;-54